Time;durP1;ratioP1;P1;durP2;ratioP2;P2;SDS_P1;SDS_P2;PMS_P1;PMS_P2;Temp;Humidity;BMP_temperature;BMP_pressure;BME280_temperature;BME280_humidity;BME280_pressure;Samples;Min_cycle;Max_cycle;Signal;HPM_P1;HPM_P2
2023/02/01 00:01:22;;;;;;;7.60;4.60;;;;;;;0.09;92.39;98920.41;105824;1253;60327;-69
2023/02/01 00:03:51;;;;;;;10.70;5.60;;;;;;;0.12;92.40;98915.01;105711;1256;72994;-72
2023/02/01 00:06:20;;;;;;;9.10;6.30;;;;;;;0.05;92.36;98915.38;105639;1257;70917;-73
2023/02/01 00:08:48;;;;;;;15.80;7.30;;;;;;;-0.04;92.50;98913.27;105871;1260;72973;-75
2023/02/01 00:11:16;;;;;;;15.10;7.30;;;;;;;-0.10;92.64;98912.54;105828;1257;60655;-74
2023/02/01 00:13:44;;;;;;;15.30;7.10;;;;;;;-0.05;92.48;98911.45;105934;1254;61350;-71
2023/02/01 00:16:17;;;;;;;13.10;7.20;;;;;;;-0.01;92.15;98910.66;105930;1254;72068;-73
2023/02/01 00:18:47;;;;;;;16.70;8.50;;;;;;;-0.07;92.26;98910.08;105706;1259;69741;-73
2023/02/01 00:21:17;;;;;;;17.50;9.50;;;;;;;-0.15;92.63;98911.01;105647;1254;72520;-72
2023/02/01 00:23:46;;;;;;;14.10;7.00;;;;;;;-0.23;92.43;98907.62;105636;1254;62192;-72
2023/02/01 00:26:16;;;;;;;13.40;7.00;;;;;;;-0.19;92.27;98902.83;105677;1255;61048;-73
2023/02/01 00:28:45;;;;;;;11.40;5.90;;;;;;;-0.14;91.92;98901.58;105688;1254;74247;-73
2023/02/01 00:31:14;;;;;;;11.20;6.10;;;;;;;-0.21;91.86;98898.98;105902;1254;71586;-72
2023/02/01 00:33:42;;;;;;;12.10;6.10;;;;;;;-0.31;92.20;98900.77;105794;1257;73450;-71
2023/02/01 00:36:11;;;;;;;9.70;6.10;;;;;;;-0.38;92.52;98898.86;105451;1254;59820;-75
2023/02/01 00:38:39;;;;;;;11.00;5.40;;;;;;;-0.41;92.40;98895.52;105624;1252;60318;-71
2023/02/01 00:41:11;;;;;;;11.50;5.50;;;;;;;-0.34;92.09;98897.77;105747;1255;73383;-72
2023/02/01 00:43:39;;;;;;;10.50;5.60;;;;;;;-0.33;92.02;98897.14;105607;1257;71010;-71
2023/02/01 00:46:08;;;;;;;11.10;5.70;;;;;;;-0.39;92.23;98896.01;105715;1254;73916;-71
2023/02/01 00:48:37;;;;;;;10.70;6.20;;;;;;;-0.45;92.36;98900.30;105890;1254;60264;-71
2023/02/01 00:51:07;;;;;;;11.00;5.50;;;;;;;-0.51;92.38;98899.55;105633;1258;61408;-71
2023/02/01 00:53:35;;;;;;;10.70;5.10;;;;;;;-0.45;92.26;98897.34;106031;1257;74394;-74
2023/02/01 00:56:06;;;;;;;10.20;5.10;;;;;;;-0.40;91.95;98901.80;105653;1254;71385;-72
2023/02/01 00:58:37;;;;;;;9.50;5.20;;;;;;;-0.45;91.93;98902.23;105734;1254;73465;-70
2023/02/01 01:01:10;;;;;;;12.30;6.00;;;;;;;-0.53;92.14;98904.42;105710;1254;60484;-70
2023/02/01 01:03:39;;;;;;;;;;;;;;;-0.55;92.11;98906.88;105675;1253;59704;-72
2023/02/01 01:06:11;;;;;;;9.90;6.00;;;;;;;-0.50;92.02;98903.48;105650;1254;71908;-69
2023/02/01 01:08:39;;;;;;;10.60;5.60;;;;;;;-0.54;91.99;98905.16;105700;1256;69116;-71
2023/02/01 01:11:16;;;;;;;9.30;5.70;;;;;;;-0.62;92.28;98908.19;105632;1257;73885;-70
2023/02/01 01:13:48;;;;;;;9.00;5.20;;;;;;;-0.68;92.51;98908.33;105588;1255;59651;-67
2023/02/01 01:16:16;;;;;;;12.40;5.50;;;;;;;-0.66;92.18;98906.92;105744;1252;61312;-70
2023/02/01 01:18:46;;;;;;;11.80;6.10;;;;;;;-0.58;92.18;98910.69;105678;1254;73366;-69
2023/02/01 01:21:15;;;;;;;14.60;6.70;;;;;;;-0.60;92.24;98918.71;105701;1256;69500;-72
2023/02/01 01:23:44;;;;;;;11.60;6.90;;;;;;;-0.66;92.23;98917.55;105698;1254;72374;-71
2023/02/01 01:26:14;;;;;;;15.70;8.00;;;;;;;-0.65;92.10;98920.42;105648;1254;60445;-71
2023/02/01 01:28:42;;;;;;;14.70;6.90;;;;;;;-0.55;92.10;98917.81;105680;1257;60420;-71
2023/02/01 01:31:12;;;;;;;12.50;7.40;;;;;;;-0.55;92.06;98914.13;105512;1259;74173;-70
2023/02/01 01:33:40;;;;;;;12.70;6.60;;;;;;;-0.61;92.17;98906.80;105675;1257;69943;-72
2023/02/01 01:36:12;;;;;;;12.50;7.20;;;;;;;-0.61;92.10;98905.17;105504;1254;72343;-71
2023/02/01 01:38:40;;;;;;;11.80;6.70;;;;;;;-0.51;92.08;98901.30;105564;1258;60493;-69
2023/02/01 01:41:13;;;;;;;13.50;7.20;;;;;;;-0.53;92.09;98903.52;105551;1254;60531;-69
2023/02/01 01:44:01;;;;;;;10.50;7.00;;;;;;;-0.57;92.40;98901.06;105815;1253;73876;-71
2023/02/01 01:46:34;;;;;;;11.50;6.30;;;;;;;-0.54;92.43;98905.55;105726;1257;68582;-70
2023/02/01 01:49:20;;;;;;;10.20;6.10;;;;;;;-0.46;91.96;98900.70;105701;1254;71390;-70
2023/02/01 01:51:52;;;;;;;13.70;6.80;;;;;;;-0.48;91.99;98897.02;105752;1254;60521;-70
2023/02/01 01:54:26;;;;;;;12.40;6.80;;;;;;;-0.53;92.06;98893.09;105554;1259;60380;-71
2023/02/01 01:57:10;;;;;;;10.40;6.70;;;;;;;-0.45;92.10;98887.27;105626;1254;72034;-71
2023/02/01 01:59:38;;;;;;;;;;;;;;;-0.40;92.05;98884.79;105591;1257;69956;-70
2023/02/01 02:02:06;;;;;;;13.60;7.50;;;;;;;-0.45;91.91;98888.29;105707;1254;71972;-71
2023/02/01 02:04:38;;;;;;;13.60;6.70;;;;;;;-0.46;91.82;98888.20;105693;1254;62412;-71
2023/02/01 02:07:17;;;;;;;16.70;7.80;;;;;;;-0.38;91.88;98883.61;105631;1257;60412;-69
2023/02/01 02:09:50;;;;;;;14.30;7.20;;;;;;;-0.39;92.15;98880.89;105629;1257;74099;-70
2023/02/01 02:12:28;;;;;;;12.80;7.00;;;;;;;-0.44;92.27;98877.80;105578;1257;71293;-71
2023/02/01 02:14:57;;;;;;;14.70;7.50;;;;;;;-0.42;92.15;98874.84;105678;1253;73892;-69
2023/02/01 02:17:47;;;;;;;12.10;7.20;;;;;;;-0.33;92.14;98869.48;105522;1254;60476;-70
2023/02/01 02:20:31;;;;;;;13.80;7.40;;;;;;;-0.33;92.19;98864.97;105596;1254;61034;-70
2023/02/01 02:23:08;;;;;;;12.70;7.70;;;;;;;-0.39;92.34;98862.95;105644;1253;74654;-72
2023/02/01 02:26:23;;;;;;;15.50;7.80;;;;;;;-0.41;92.56;98859.80;105527;1257;70275;-71
2023/02/01 02:28:58;;;;;;;11.30;7.20;;;;;;;-0.28;92.11;98859.00;105453;1253;72901;-70
2023/02/01 02:31:52;;;;;;;12.50;7.00;;;;;;;-0.24;92.04;98864.77;105517;1257;60483;-72
2023/02/01 02:34:54;;;;;;;16.70;8.00;;;;;;;-0.30;92.31;98863.48;105756;1259;60539;-69
2023/02/01 02:37:28;;;;;;;15.20;8.10;;;;;;;-0.33;92.08;98857.11;105514;1259;72772;-73
2023/02/01 02:40:08;;;;;;;14.90;7.80;;;;;;;-0.25;92.03;98857.66;105845;1254;69979;-69
2023/02/01 02:48:45;;;;;;;15.20;7.90;;;;;;;-0.38;92.20;98861.33;105471;1256;61494;-71
2023/02/01 03:05:32;;;;;;;16.30;7.70;;;;;;;-0.52;92.80;98862.05;105584;1259;73688;-70
2023/02/01 03:08:11;;;;;;;16.20;8.00;;;;;;;-0.53;93.02;98865.11;105515;1259;70558;-69
2023/02/01 03:10:42;;;;;;;15.00;7.50;;;;;;;-0.49;93.08;98862.36;105680;1253;73861;-69
2023/02/01 03:13:17;;;;;;;18.40;9.60;;;;;;;-0.51;93.22;98860.79;105555;1253;60523;-70
2023/02/01 03:15:57;;;;;;;16.90;7.80;;;;;;;-0.58;93.48;98859.56;105557;1254;61477;-70
2023/02/01 03:18:39;;;;;;;15.00;8.80;;;;;;;-0.54;93.80;98861.14;105594;1257;72842;-68
2023/02/01 03:21:15;;;;;;;16.00;9.00;;;;;;;-0.54;93.63;98862.06;105597;1256;69496;-72
2023/02/01 03:23:44;;;;;;;17.60;8.40;;;;;;;-0.58;93.81;98864.27;105619;1254;70146;-74
2023/02/01 03:26:15;;;;;;;13.90;7.90;;;;;;;-0.51;93.78;98860.92;105730;1253;60514;-71
2023/02/01 03:28:49;;;;;;;18.70;8.70;;;;;;;-0.49;93.89;98860.09;105692;1260;60853;-72
2023/02/01 03:31:17;;;;;;;13.70;7.90;;;;;;;-0.54;93.79;98861.20;105905;1253;72409;-74
2023/02/01 03:33:46;;;;;;;18.80;8.90;;;;;;;-0.50;93.86;98855.25;105938;1254;70275;-70
2023/02/01 03:36:22;;;;;;;17.80;9.30;;;;;;;-0.45;93.70;98854.59;106064;1258;73320;-71
2023/02/01 03:39:02;;;;;;;14.10;9.10;;;;;;;-0.51;93.90;98853.95;105944;1253;60419;-71
2023/02/01 03:41:53;;;;;;;17.80;9.20;;;;;;;-0.56;94.36;98855.29;105609;1256;60521;-73
2023/02/01 03:44:49;;;;;;;17.80;8.90;;;;;;;-0.54;94.20;98851.63;105496;1254;74932;-71
2023/02/01 03:47:22;;;;;;;15.90;9.20;;;;;;;-0.43;93.82;98851.45;105876;1257;71669;-71
2023/02/01 03:49:54;;;;;;;21.60;9.40;;;;;;;-0.45;93.87;98852.41;105648;1257;72622;-71
2023/02/01 03:52:25;;;;;;;24.60;10.80;;;;;;;-0.48;93.95;98853.41;105959;1253;60505;-73
2023/02/01 03:54:55;;;;;;;14.20;8.80;;;;;;;-0.43;93.65;98849.15;105780;1256;61463;-72
2023/02/01 03:57:29;;;;;;;17.90;9.20;;;;;;;-0.39;93.54;98849.02;105607;1257;75079;-73
2023/02/01 04:00:09;;;;;;;17.90;9.70;;;;;;;-0.45;93.69;98844.44;105502;1260;69300;-69
2023/02/01 04:02:45;;;;;;;15.40;8.30;;;;;;;-0.45;93.67;98845.31;105676;1253;73624;-73
2023/02/01 04:05:13;;;;;;;14.90;7.90;;;;;;;-0.39;93.27;98849.02;105785;1260;61943;-72
2023/02/01 04:07:46;;;;;;;16.90;9.00;;;;;;;-0.39;93.47;98847.68;105748;1253;61120;-71
2023/02/01 04:10:15;;;;;;;17.00;9.40;;;;;;;-0.47;93.55;98851.27;105845;1254;74021;-71
2023/02/01 04:12:46;;;;;;;18.40;8.90;;;;;;;-0.50;93.66;98854.80;105709;1253;69365;-73
2023/02/01 04:15:14;;;;;;;15.60;8.80;;;;;;;-0.44;93.47;98850.62;105828;1253;73308;-74
2023/02/01 04:17:44;;;;;;;19.30;9.70;;;;;;;-0.43;93.30;98855.60;105826;1252;60527;-76
2023/02/01 04:20:12;;;;;;;20.10;9.50;;;;;;;-0.49;93.49;98853.52;105919;1253;61067;-72
2023/02/01 04:22:40;;;;;;;14.30;8.80;;;;;;;-0.52;93.40;98856.66;105815;1253;74831;-75
2023/02/01 04:25:08;;;;;;;17.20;8.90;;;;;;;-0.47;93.33;98858.20;105846;1252;71143;-72
2023/02/01 04:27:37;;;;;;;19.30;9.70;;;;;;;-0.47;93.32;98857.80;105876;1257;72886;-73
2023/02/01 04:30:09;;;;;;;21.50;9.70;;;;;;;-0.53;93.33;98859.35;105736;1259;60933;-74
2023/02/01 04:32:38;;;;;;;21.80;9.40;;;;;;;-0.52;93.37;98861.36;105823;1252;60374;-69
2023/02/01 04:35:06;;;;;;;21.80;9.60;;;;;;;-0.48;93.32;98856.23;105625;1253;72097;-72
2023/02/01 04:37:35;;;;;;;18.10;10.40;;;;;;;-0.53;93.28;98857.31;105620;1254;69418;-71
2023/02/01 04:40:04;;;;;;;18.80;10.50;;;;;;;-0.60;93.64;98856.89;105923;1253;74042;-73
2023/02/01 04:42:34;;;;;;;21.50;10.50;;;;;;;-0.54;93.25;98857.36;105823;1253;62199;-74
2023/02/01 04:45:02;;;;;;;22.70;12.40;;;;;;;-0.45;93.04;98855.45;106060;1257;60429;-73
2023/02/01 04:47:32;;;;;;;27.20;13.60;;;;;;;-0.48;92.84;98856.34;106271;1254;72593;-74
2023/02/01 04:49:59;;;;;;;22.00;13.90;;;;;;;-0.49;92.91;98860.60;107069;1254;69484;-74
2023/02/01 04:52:28;;;;;;;23.20;12.80;;;;;;;-0.41;92.32;98859.79;107426;1252;71715;-76
2023/02/01 04:54:59;;;;;;;22.60;12.50;;;;;;;-0.36;92.04;98859.10;108874;1253;59258;-76
2023/02/01 04:57:27;;;;;;;16.60;9.70;;;;;;;-0.40;92.01;98859.07;109019;1253;60322;-76
2023/02/01 04:59:55;;;;;;;20.60;9.90;;;;;;;-0.41;91.83;98861.36;108740;1253;72834;-75
2023/02/01 05:02:23;;;;;;;16.90;8.40;;;;;;;-0.31;91.52;98853.86;108548;1253;69122;-77
2023/02/01 05:04:51;;;;;;;17.30;9.50;;;;;;;-0.28;91.30;98856.20;107987;1254;72507;-76
2023/02/01 05:07:19;;;;;;;19.30;9.50;;;;;;;-0.33;91.48;98852.45;107758;1253;60338;-77
2023/02/01 05:09:47;;;;;;;22.20;10.10;;;;;;;-0.38;91.60;98853.16;108519;1252;60319;-77
2023/02/01 05:15:07;;;;;;;19.90;10.80;;;;;;;-0.23;91.20;98853.90;108645;1253;69789;-75
2023/02/01 05:17:36;;;;;;;18.10;10.00;;;;;;;-0.28;91.04;98856.90;106529;1253;72244;-75
2023/02/01 05:20:07;;;;;;;16.20;8.40;;;;;;;-0.31;91.14;98849.09;105765;1253;60605;-77
2023/02/01 05:22:35;;;;;;;18.30;9.20;;;;;;;-0.24;90.95;98844.02;105972;1257;60534;-75
2023/02/01 05:25:03;;;;;;;18.40;9.40;;;;;;;-0.24;90.94;98843.86;105875;1253;73518;-75
2023/02/01 05:27:32;;;;;;;17.20;8.60;;;;;;;-0.31;90.92;98844.08;105899;1253;70699;-74
2023/02/01 05:30:02;;;;;;;15.40;8.80;;;;;;;-0.34;90.99;98839.46;106841;1253;71680;-74
2023/02/01 05:32:30;;;;;;;16.80;8.80;;;;;;;-0.27;90.72;98843.38;106239;1254;60594;-74
2023/02/01 05:35:02;;;;;;;17.50;9.50;;;;;;;-0.29;90.91;98846.21;105748;1257;61280;-71
2023/02/01 05:37:31;;;;;;;19.60;10.50;;;;;;;-0.37;91.16;98849.23;105802;1253;73496;-71
2023/02/01 05:39:59;;;;;;;19.30;9.40;;;;;;;-0.36;90.93;98848.30;105691;1255;70852;-74
2023/02/01 05:42:28;;;;;;;19.90;10.00;;;;;;;-0.30;91.19;98846.99;105892;1253;70427;-74
2023/02/01 05:44:56;;;;;;;22.20;10.40;;;;;;;-0.35;91.26;98845.56;106055;1253;60540;-74
2023/02/01 05:47:24;;;;;;;17.90;9.10;;;;;;;-0.41;91.36;98845.70;106010;1253;60420;-73
2023/02/01 05:49:52;;;;;;;20.50;9.80;;;;;;;-0.36;91.34;98844.96;105960;1254;73705;-74
2023/02/01 05:52:21;;;;;;;18.40;10.70;;;;;;;-0.35;91.17;98846.16;105905;1253;70603;-73
2023/02/01 05:54:50;;;;;;;18.20;9.10;;;;;;;-0.43;91.45;98847.79;105892;1257;72716;-75
2023/02/01 05:57:18;;;;;;;19.10;10.50;;;;;;;-0.41;91.29;98849.70;105905;1253;61103;-76
2023/02/01 05:59:47;;;;;;;17.90;10.70;;;;;;;-0.36;91.28;98848.15;105894;1253;61321;-75
2023/02/01 06:02:15;;;;;;;20.40;11.30;;;;;;;-0.43;91.31;98845.48;105873;1253;72848;-75
2023/02/01 06:04:43;;;;;;;21.20;10.90;;;;;;;-0.41;91.43;98841.72;105843;1256;71452;-75
2023/02/01 06:07:11;;;;;;;21.40;10.00;;;;;;;-0.37;91.43;98841.27;105719;1252;72663;-74
2023/02/01 06:09:39;;;;;;;19.90;11.10;;;;;;;-0.43;91.57;98840.68;105964;1253;60297;-75
2023/02/01 06:12:07;;;;;;;18.20;11.10;;;;;;;-0.48;91.76;98844.39;105805;1256;61335;-74
2023/02/01 06:14:36;;;;;;;17.60;10.00;;;;;;;-0.44;91.74;98847.68;105875;1253;73381;-73
2023/02/01 06:17:08;;;;;;;22.20;11.10;;;;;;;-0.40;91.52;98844.04;105884;1256;69749;-75
2023/02/01 06:19:36;;;;;;;25.40;10.70;;;;;;;-0.39;91.65;98844.52;105637;1256;73118;-69
2023/02/01 06:22:06;;;;;;;20.50;10.20;;;;;;;-0.44;91.66;98843.55;105751;1253;60552;-71
2023/02/01 06:24:34;;;;;;;17.00;9.60;;;;;;;-0.41;91.42;98847.92;105493;1257;61306;-70
2023/02/01 06:27:02;;;;;;;16.00;10.00;;;;;;;-0.34;91.07;98849.71;105686;1252;74866;-70
2023/02/01 06:29:31;;;;;;;20.70;12.80;;;;;;;-0.38;91.15;98844.83;105521;1253;70113;-70
2023/02/01 06:31:59;;;;;;;21.70;12.30;;;;;;;-0.41;91.32;98841.39;105582;1253;73359;-68
2023/02/01 06:34:28;;;;;;;20.90;12.60;;;;;;;-0.35;91.24;98842.98;105607;1253;62070;-68
2023/02/01 06:36:56;;;;;;;19.50;10.40;;;;;;;-0.37;90.91;98839.65;105626;1253;61587;-70
2023/02/01 06:39:24;;;;;;;20.40;11.30;;;;;;;-0.37;90.95;98833.11;105611;1253;72918;-70
2023/02/01 06:41:52;;;;;;;20.00;11.80;;;;;;;-0.29;90.61;98838.56;105580;1253;70423;-67
2023/02/01 06:44:21;;;;;;;19.20;11.00;;;;;;;-0.28;90.49;98844.72;105551;1253;72935;-70
2023/02/01 06:46:49;;;;;;;18.50;10.80;;;;;;;-0.32;90.71;98843.30;105563;1252;60429;-69
2023/02/01 06:49:19;;;;;;;25.10;11.30;;;;;;;-0.26;90.51;98843.13;105767;1256;61332;-70
2023/02/01 06:51:48;;;;;;;20.70;10.40;;;;;;;-0.15;89.55;98844.61;105715;1253;73855;-70
2023/02/01 06:54:16;;;;;;;21.80;10.60;;;;;;;-0.13;89.58;98843.73;105752;1253;72356;-70
2023/02/01 06:56:44;;;;;;;20.90;12.10;;;;;;;-0.15;89.49;98845.27;105565;1253;73882;-71
2023/02/01 06:59:12;;;;;;;20.10;11.20;;;;;;;-0.10;89.45;98845.52;105406;1253;61312;-72
2023/02/01 07:01:43;;;;;;;21.30;10.70;;;;;;;-0.00;88.95;98848.25;105544;1253;60483;-72
2023/02/01 07:04:12;;;;;;;27.90;11.60;;;;;;;0.01;88.70;98847.46;106063;1252;74827;-72
2023/02/01 07:06:40;;;;;;;22.60;10.90;;;;;;;0.00;88.26;98847.48;105516;1253;71548;-70
2023/02/01 07:09:08;;;;;;;20.10;11.50;;;;;;;0.11;88.07;98838.28;105586;1253;73106;-72
2023/02/01 07:11:39;;;;;;;23.40;12.80;;;;;;;0.13;87.83;98838.83;105523;1256;60792;-73
2023/02/01 07:14:07;;;;;;;22.10;12.20;;;;;;;0.13;87.63;98836.08;105666;1253;60540;-72
2023/02/01 07:16:36;;;;;;;26.30;12.00;;;;;;;0.20;87.62;98829.73;105842;1258;74695;-70
2023/02/01 07:19:04;;;;;;;20.70;12.60;;;;;;;0.34;87.33;98826.48;105643;1253;71142;-72
2023/02/01 07:21:32;;;;;;;25.00;13.30;;;;;;;0.40;86.62;98823.05;106016;1253;72668;-73
2023/02/01 07:24:00;;;;;;;24.60;13.70;;;;;;;0.39;86.50;98811.97;105892;1253;60422;-70
2023/02/01 07:26:29;;;;;;;23.60;12.90;;;;;;;0.38;86.30;98809.48;105704;1257;60517;-70
2023/02/01 07:28:57;;;;;;;24.50;12.10;;;;;;;0.49;85.62;98806.80;106017;1258;75020;-72
2023/02/01 07:31:26;;;;;;;26.40;13.60;;;;;;;0.53;85.17;98807.16;105964;1253;70653;-71
2023/02/01 07:33:56;;;;;;;24.50;13.10;;;;;;;0.49;84.98;98798.13;106034;1256;72567;-72
2023/02/01 07:36:24;;;;;;;20.00;11.90;;;;;;;0.44;85.06;98799.77;105837;1253;60448;-72
2023/02/01 07:38:52;;;;;;;22.90;11.20;;;;;;;0.50;85.15;98801.34;105880;1253;61526;-72
2023/02/01 07:41:23;;;;;;;23.40;11.60;;;;;;;0.54;85.17;98803.78;105744;1253;71737;-71
2023/02/01 07:43:54;;;;;;;24.80;13.20;;;;;;;0.52;85.15;98803.77;105511;1257;71646;-71
2023/02/01 07:46:23;;;;;;;21.00;12.10;;;;;;;0.48;85.24;98798.40;105528;1253;72184;-72
2023/02/01 07:48:51;;;;;;;24.20;11.50;;;;;;;0.57;85.42;98800.07;105576;1253;62225;-72
2023/02/01 07:51:19;;;;;;;21.80;11.20;;;;;;;0.63;84.70;98798.91;105722;1253;60432;-71
2023/02/01 07:53:47;;;;;;;21.20;12.20;;;;;;;0.55;84.02;98800.58;105639;1253;73045;-71
2023/02/01 07:56:19;;;;;;;22.80;12.00;;;;;;;0.49;84.73;98792.91;105896;1253;68278;-72
2023/02/01 07:58:48;;;;;;;22.30;12.90;;;;;;;0.57;84.79;98793.09;105669;1253;72984;-72
2023/02/01 08:01:23;;;;;;;27.20;14.00;;;;;;;0.65;84.47;98792.42;105586;1253;60436;-71
2023/02/01 08:04:00;;;;;;;26.30;15.10;;;;;;;0.64;84.62;98791.30;105814;1257;60359;-72
2023/02/01 08:06:30;;;;;;;27.30;14.70;;;;;;;0.63;84.79;98789.48;105740;1258;72137;-74
2023/02/01 08:08:59;;;;;;;22.90;13.80;;;;;;;0.65;84.86;98785.49;105863;1253;69515;-73
2023/02/01 08:11:26;;;;;;;27.70;16.00;;;;;;;0.76;84.32;98780.75;105791;1255;71369;-72
2023/02/01 08:13:55;;;;;;;25.80;16.40;;;;;;;0.85;84.24;98781.55;105763;1253;60435;-72
2023/02/01 08:16:23;;;;;;;24.20;15.50;;;;;;;0.82;83.98;98784.55;105725;1253;60560;-72
2023/02/01 08:18:52;;;;;;;28.60;16.20;;;;;;;0.77;84.02;98785.98;105630;1259;73769;-72
2023/02/01 08:21:24;;;;;;;26.20;14.50;;;;;;;0.76;83.24;98790.80;105695;1254;69789;-72
2023/02/01 08:23:52;;;;;;;22.40;12.70;;;;;;;0.86;82.68;98785.95;105767;1253;71745;-72
2023/02/01 08:26:24;;;;;;;26.40;13.10;;;;;;;0.93;82.47;98791.08;105807;1257;60884;-71
2023/02/01 08:28:54;;;;;;;22.90;13.10;;;;;;;0.94;82.28;98786.11;105777;1258;60998;-72
2023/02/01 08:31:23;;;;;;;23.90;13.50;;;;;;;0.98;82.44;98779.17;105823;1253;75221;-73
2023/02/01 08:33:53;;;;;;;18.30;11.80;;;;;;;1.11;81.72;98777.41;105724;1253;71252;-73
2023/02/01 08:36:22;;;;;;;22.50;12.90;;;;;;;1.32;81.75;98775.02;105802;1257;72794;-72
2023/02/01 08:38:50;;;;;;;21.50;12.70;;;;;;;1.45;80.92;98767.67;105787;1253;60469;-71
2023/02/01 08:41:20;;;;;;;24.20;13.00;;;;;;;1.49;80.81;98770.25;105803;1253;60437;-72
2023/02/01 08:43:48;;;;;;;23.90;12.90;;;;;;;1.52;79.84;98766.89;105815;1253;74065;-71
2023/02/01 08:46:17;;;;;;;25.50;15.60;;;;;;;1.51;77.98;98771.11;105747;1255;68868;-73
2023/02/01 08:48:46;;;;;;;22.70;14.10;;;;;;;1.55;77.90;98763.43;105732;1252;73931;-72
2023/02/01 08:51:16;;;;;;;22.00;11.70;;;;;;;1.62;77.64;98765.48;105820;1253;60535;-72
2023/02/01 08:53:44;;;;;;;24.70;13.00;;;;;;;1.61;77.25;98752.97;105756;1253;61481;-72
2023/02/01 08:56:14;;;;;;;27.20;13.80;;;;;;;1.60;77.02;98758.30;105530;1259;74928;-72
2023/02/01 08:58:43;;;;;;;19.30;11.70;;;;;;;1.60;77.15;98744.20;105708;1251;70587;-72
2023/02/01 09:01:14;;;;;;;22.00;11.80;;;;;;;1.66;77.14;98743.30;105652;1258;70527;-72
2023/02/01 09:03:42;;;;;;;21.20;11.60;;;;;;;1.84;76.51;98746.46;105733;1253;60529;-74
2023/02/01 09:06:11;;;;;;;21.40;11.80;;;;;;;1.87;75.34;98742.67;105618;1253;60761;-73
2023/02/01 09:08:47;;;;;;;23.50;12.00;;;;;;;1.82;74.91;98737.52;105733;1253;75031;-72
2023/02/01 09:11:16;;;;;;;21.30;11.90;;;;;;;1.83;74.89;98737.98;105861;1253;69550;-73
2023/02/01 09:13:46;;;;;;;17.80;10.90;;;;;;;1.86;74.34;98726.36;105769;1253;72486;-73
2023/02/01 09:16:14;;;;;;;18.20;11.10;;;;;;;1.94;74.01;98725.98;105637;1254;61852;-71
2023/02/01 09:18:44;;;;;;;20.20;11.10;;;;;;;2.16;73.52;98722.92;105878;1253;60412;-72
2023/02/01 09:21:32;;;;;;;20.70;11.20;;;;;;;2.25;72.78;98714.45;105856;1258;73849;-72
2023/02/01 09:24:00;;;;;;;20.90;11.10;;;;;;;2.36;72.38;98713.63;105792;1256;70225;-72
2023/02/01 09:26:30;;;;;;;19.50;9.90;;;;;;;2.52;71.00;98713.67;105819;1257;72190;-72
2023/02/01 09:29:00;;;;;;;18.10;11.40;;;;;;;2.59;70.22;98703.48;105520;1253;334010;-74
2023/02/01 09:33:23;;;;;;;17.00;9.20;;;;;;;2.57;68.81;98700.63;102708;1295;601034;-72
2023/02/01 09:35:57;;;;;;;18.50;9.80;;;;;;;2.51;68.38;98702.83;104791;1269;60465;-72
2023/02/01 09:38:27;;;;;;;17.30;8.50;;;;;;;2.46;68.14;98710.78;104928;1270;61771;-71
2023/02/01 09:40:57;;;;;;;16.50;8.30;;;;;;;2.37;67.55;98703.38;105177;1267;71884;-72
2023/02/01 09:43:43;;;;;;;19.30;9.20;;;;;;;2.30;67.22;98703.12;105243;1266;71199;-73
2023/02/01 09:46:32;;;;;;;24.50;10.60;;;;;;;2.24;68.30;98696.56;105114;1260;207222;-72
2023/02/01 09:49:08;;;;;;;17.90;10.50;;;;;;;2.15;68.20;98698.94;105397;1260;59469;-72
2023/02/01 09:51:38;;;;;;;24.60;13.20;;;;;;;2.02;68.84;98686.00;105498;1260;59129;-72
2023/02/01 09:54:17;;;;;;;25.90;11.20;;;;;;;1.93;69.63;98687.69;105437;1263;72485;-72
2023/02/01 09:56:50;;;;;;;18.40;9.30;;;;;;;1.93;70.12;98693.59;105438;1260;71617;-72
2023/02/01 09:59:34;;;;;;;;;;;;;;;1.77;70.21;98687.50;105509;1260;70438;-73
2023/02/01 10:02:03;;;;;;;14.50;9.00;;;;;;;1.53;71.30;98689.30;105577;1259;60055;-71
2023/02/01 10:04:33;;;;;;;14.30;8.20;;;;;;;1.30;72.20;98678.80;105519;1262;61416;-71
2023/02/01 10:07:10;;;;;;;16.20;8.30;;;;;;;1.13;73.29;98680.04;105457;1262;73012;-71
2023/02/01 10:09:50;;;;;;;19.90;11.20;;;;;;;1.14;73.79;98672.27;105538;1260;70552;-71
2023/02/01 10:12:28;;;;;;;16.90;8.70;;;;;;;1.16;74.14;98669.20;105527;1260;72437;-70
2023/02/01 10:15:32;;;;;;;20.70;11.50;;;;;;;1.11;74.52;98662.95;105481;1260;60949;-71
2023/02/01 10:18:23;;;;;;;14.90;9.10;;;;;;;1.06;74.64;98680.72;106113;1259;59523;-71
2023/02/01 10:21:10;;;;;;;15.90;8.40;;;;;;;0.99;75.16;98665.63;106026;1259;73339;-72
2023/02/01 10:24:21;;;;;;;16.40;9.50;;;;;;;1.04;75.65;98659.63;106102;1253;69216;-72
2023/02/01 10:26:55;;;;;;;18.70;10.00;;;;;;;0.95;76.35;98660.55;106380;1254;73673;-71
2023/02/01 10:29:25;;;;;;;15.00;10.20;;;;;;;0.86;76.61;98650.46;106929;1254;59854;-70
2023/02/01 10:31:54;;;;;;;17.40;8.60;;;;;;;0.81;76.70;98670.48;106980;1254;60205;-71
2023/02/01 10:34:30;;;;;;;15.50;7.60;;;;;;;0.85;76.61;98658.31;107281;1254;73560;-73
2023/02/01 10:37:28;;;;;;;17.90;8.90;;;;;;;0.89;76.89;98647.13;107639;1254;70397;-70
2023/02/01 10:39:58;;;;;;;16.00;8.70;;;;;;;0.82;77.09;98652.09;107205;1257;72128;-72
2023/02/01 10:42:28;;;;;;;14.70;8.10;;;;;;;0.73;77.36;98647.79;107708;1257;59556;-71
2023/02/01 10:44:57;;;;;;;14.90;7.60;;;;;;;0.68;77.57;98647.86;107783;1255;59223;-71
2023/02/01 10:47:25;;;;;;;13.50;8.00;;;;;;;0.77;77.69;98644.83;107921;1259;73014;-72
2023/02/01 10:50:14;;;;;;;19.50;10.40;;;;;;;0.76;77.68;98640.38;108226;1254;71252;-73
2023/02/01 10:52:44;;;;;;;23.00;10.50;;;;;;;0.70;78.05;98631.34;105980;1254;73756;-73
2023/02/01 10:55:27;;;;;;;16.30;8.90;;;;;;;0.66;78.86;98649.94;105666;1257;60074;-70
2023/02/01 10:58:00;;;;;;;17.20;9.70;;;;;;;0.64;79.62;98632.34;105432;1258;59654;-72
2023/02/01 11:00:34;;;;;;;17.00;8.90;;;;;;;0.72;79.90;98634.96;105653;1255;73012;-72
2023/02/01 11:03:02;;;;;;;21.00;9.40;;;;;;;0.71;80.45;98630.85;105459;1259;70268;-70
2023/02/01 11:05:43;;;;;;;15.90;7.90;;;;;;;0.63;81.10;98641.55;105505;1261;71611;-74
2023/02/01 11:08:16;;;;;;;17.10;9.80;;;;;;;0.54;81.87;98634.10;105563;1261;60118;-72
2023/02/01 11:10:43;;;;;;;14.60;8.30;;;;;;;0.56;82.84;98624.48;105795;1259;61381;-71
2023/02/01 11:13:16;;;;;;;19.10;11.00;;;;;;;0.54;83.31;98622.76;105522;1259;74036;-72
2023/02/01 11:15:46;;;;;;;14.30;8.30;;;;;;;0.47;84.13;98621.83;105778;1257;69484;-72
2023/02/01 11:18:16;;;;;;;18.00;9.10;;;;;;;0.46;84.76;98619.06;105573;1257;73170;-71
2023/02/01 11:20:49;;;;;;;15.90;9.20;;;;;;;0.49;85.03;98616.74;105835;1257;59615;-72
2023/02/01 11:23:27;;;;;;;19.50;9.40;;;;;;;0.42;85.78;98619.43;105683;1259;60766;-72
2023/02/01 11:25:57;;;;;;;19.60;10.50;;;;;;;0.43;86.06;98613.40;105809;1259;72686;-70
2023/02/01 11:28:34;;;;;;;24.60;11.70;;;;;;;0.55;86.47;98610.77;105724;1258;69290;-71
2023/02/01 11:31:05;;;;;;;18.50;11.20;;;;;;;0.57;86.97;98610.64;105618;1260;73489;-72
2023/02/01 11:33:35;;;;;;;18.70;9.90;;;;;;;0.53;87.31;98609.42;105429;1253;59549;-71
2023/02/01 11:36:07;;;;;;;18.60;10.40;;;;;;;0.50;87.38;98597.85;105799;1259;60893;-72
2023/02/01 11:38:36;;;;;;;21.60;9.90;;;;;;;0.55;87.62;98604.66;105736;1259;73809;-72
2023/02/01 11:41:14;;;;;;;19.90;10.60;;;;;;;0.52;88.15;98598.00;105643;1261;71527;-72
2023/02/01 11:44:02;;;;;;;22.10;11.70;;;;;;;0.44;88.34;98599.61;105529;1259;72638;-73
2023/02/01 11:46:34;;;;;;;18.40;10.20;;;;;;;0.47;88.69;98598.27;105814;1259;61184;-72
2023/02/01 11:49:23;;;;;;;22.70;11.80;;;;;;;0.51;88.67;98593.02;105845;1260;59563;-73
2023/02/01 11:52:37;;;;;;;18.00;11.30;;;;;;;0.47;89.37;98590.63;105800;1259;72621;-71
2023/02/01 11:55:14;;;;;;;16.40;9.70;;;;;;;0.46;89.55;98592.45;105621;1259;70458;-72
2023/02/01 11:57:58;;;;;;;17.60;9.80;;;;;;;0.57;89.16;98590.98;105870;1254;73672;-72
2023/02/01 12:00:59;;;;;;;26.90;11.70;;;;;;;0.56;88.57;98587.39;105794;1258;59809;-73
2023/02/01 12:03:52;;;;;;;18.30;10.90;;;;;;;0.47;89.16;98586.23;105827;1255;59839;-72
2023/02/01 12:06:35;;;;;;;15.90;10.00;;;;;;;0.48;88.92;98587.78;105670;1260;71166;-71